sensor_id;sensor_type;location;lat;lon;timestamp;temperature;humidity
8591;DHT22;4333;48.322;14.340;2023-06-22T00:02:12;19.80;99.90
8591;DHT22;4333;48.322;14.340;2023-06-22T00:04:43;19.70;99.90
8591;DHT22;4333;48.322;14.340;2023-06-22T00:07:12;19.70;99.90
8591;DHT22;4333;48.322;14.340;2023-06-22T00:09:55;19.60;99.90
8591;DHT22;4333;48.322;14.340;2023-06-22T00:12:30;19.50;99.90
8591;DHT22;4333;48.322;14.340;2023-06-22T00:14:57;19.60;99.90
8591;DHT22;4333;48.322;14.340;2023-06-22T00:17:25;19.50;99.90
8591;DHT22;4333;48.322;14.340;2023-06-22T00:19:51;19.40;99.90
8591;DHT22;4333;48.322;14.340;2023-06-22T00:22:21;19.30;99.90
8591;DHT22;4333;48.322;14.340;2023-06-22T00:24:54;19.40;99.90
8591;DHT22;4333;48.322;14.340;2023-06-22T00:27:23;19.40;99.90
8591;DHT22;4333;48.322;14.340;2023-06-22T00:29:56;19.40;99.90
8591;DHT22;4333;48.322;14.340;2023-06-22T00:32:44;19.40;99.90
8591;DHT22;4333;48.322;14.340;2023-06-22T00:35:12;19.40;99.90
8591;DHT22;4333;48.322;14.340;2023-06-22T00:37:43;19.40;99.90
8591;DHT22;4333;48.322;14.340;2023-06-22T00:40:12;19.40;99.90
8591;DHT22;4333;48.322;14.340;2023-06-22T00:42:41;19.40;99.90
8591;DHT22;4333;48.322;14.340;2023-06-22T00:45:09;19.50;99.90
8591;DHT22;4333;48.322;14.340;2023-06-22T00:47:35;19.60;99.90
8591;DHT22;4333;48.322;14.340;2023-06-22T00:50:06;19.50;99.90
8591;DHT22;4333;48.322;14.340;2023-06-22T00:52:35;19.40;99.90
8591;DHT22;4333;48.322;14.340;2023-06-22T00:55:06;19.30;99.90
8591;DHT22;4333;48.322;14.340;2023-06-22T00:57:37;19.30;99.90
8591;DHT22;4333;48.322;14.340;2023-06-22T01:00:06;19.20;99.90
8591;DHT22;4333;48.322;14.340;2023-06-22T01:02:35;19.20;99.90
8591;DHT22;4333;48.322;14.340;2023-06-22T01:05:06;19.20;99.90
8591;DHT22;4333;48.322;14.340;2023-06-22T01:07:42;19.20;99.90
8591;DHT22;4333;48.322;14.340;2023-06-22T01:12:53;19.20;99.90
8591;DHT22;4333;48.322;14.340;2023-06-22T01:15:45;19.10;99.90
8591;DHT22;4333;48.322;14.340;2023-06-22T01:18:17;19.00;99.90
8591;DHT22;4333;48.322;14.340;2023-06-22T01:20:44;19.00;99.90
8591;DHT22;4333;48.322;14.340;2023-06-22T01:26:18;18.90;99.90
8591;DHT22;4333;48.322;14.340;2023-06-22T01:28:55;18.90;99.90
8591;DHT22;4333;48.322;14.340;2023-06-22T01:31:27;18.90;99.90
8591;DHT22;4333;48.322;14.340;2023-06-22T01:34:01;18.80;99.90
8591;DHT22;4333;48.322;14.340;2023-06-22T01:36:32;18.70;99.90
8591;DHT22;4333;48.322;14.340;2023-06-22T01:38:59;18.70;99.90
8591;DHT22;4333;48.322;14.340;2023-06-22T01:41:26;18.60;99.90
8591;DHT22;4333;48.322;14.340;2023-06-22T01:43:53;18.60;99.90
8591;DHT22;4333;48.322;14.340;2023-06-22T01:46:25;18.50;99.90
8591;DHT22;4333;48.322;14.340;2023-06-22T01:48:56;18.60;99.90
8591;DHT22;4333;48.322;14.340;2023-06-22T01:51:24;18.60;99.90
8591;DHT22;4333;48.322;14.340;2023-06-22T01:53:50;18.60;99.90
8591;DHT22;4333;48.322;14.340;2023-06-22T01:56:21;18.60;99.90
8591;DHT22;4333;48.322;14.340;2023-06-22T01:58:57;18.70;99.90
8591;DHT22;4333;48.322;14.340;2023-06-22T02:01:33;18.70;99.90
8591;DHT22;4333;48.322;14.340;2023-06-22T02:04:08;18.70;99.90
8591;DHT22;4333;48.322;14.340;2023-06-22T02:06:42;18.80;99.90
8591;DHT22;4333;48.322;14.340;2023-06-22T02:09:16;19.00;99.90
8591;DHT22;4333;48.322;14.340;2023-06-22T02:11:46;19.30;99.90
8591;DHT22;4333;48.322;14.340;2023-06-22T02:14:14;19.70;99.90
8591;DHT22;4333;48.322;14.340;2023-06-22T02:16:40;19.80;99.90
8591;DHT22;4333;48.322;14.340;2023-06-22T02:19:15;19.70;99.90
8591;DHT22;4333;48.322;14.340;2023-06-22T02:21:49;19.60;99.90
8591;DHT22;4333;48.322;14.340;2023-06-22T02:24:14;19.50;99.90
8591;DHT22;4333;48.322;14.340;2023-06-22T02:26:42;19.30;99.90
8591;DHT22;4333;48.322;14.340;2023-06-22T02:29:10;19.20;99.90
8591;DHT22;4333;48.322;14.340;2023-06-22T02:31:39;19.10;99.90
8591;DHT22;4333;48.322;14.340;2023-06-22T02:34:04;19.00;99.90
8591;DHT22;4333;48.322;14.340;2023-06-22T02:36:33;19.00;99.90
8591;DHT22;4333;48.322;14.340;2023-06-22T02:38:59;19.30;99.90
8591;DHT22;4333;48.322;14.340;2023-06-22T02:41:27;19.40;99.90
8591;DHT22;4333;48.322;14.340;2023-06-22T02:44:01;19.70;99.90
8591;DHT22;4333;48.322;14.340;2023-06-22T02:46:30;19.90;99.90
8591;DHT22;4333;48.322;14.340;2023-06-22T02:49:20;20.10;99.90
8591;DHT22;4333;48.322;14.340;2023-06-22T02:51:47;20.20;99.90
8591;DHT22;4333;48.322;14.340;2023-06-22T02:54:13;20.20;99.90
8591;DHT22;4333;48.322;14.340;2023-06-22T02:56:47;20.20;99.90
8591;DHT22;4333;48.322;14.340;2023-06-22T02:59:15;20.00;99.90
8591;DHT22;4333;48.322;14.340;2023-06-22T03:01:51;19.90;99.90
8591;DHT22;4333;48.322;14.340;2023-06-22T03:04:18;19.90;99.90
8591;DHT22;4333;48.322;14.340;2023-06-22T03:06:44;19.80;99.90
8591;DHT22;4333;48.322;14.340;2023-06-22T03:09:12;19.70;99.90
8591;DHT22;4333;48.322;14.340;2023-06-22T03:11:58;19.50;99.90
8591;DHT22;4333;48.322;14.340;2023-06-22T03:14:27;19.30;99.90
8591;DHT22;4333;48.322;14.340;2023-06-22T03:16:56;19.20;99.90
8591;DHT22;4333;48.322;14.340;2023-06-22T03:19:29;19.10;99.90
8591;DHT22;4333;48.322;14.340;2023-06-22T03:22:02;19.00;99.90
8591;DHT22;4333;48.322;14.340;2023-06-22T03:24:31;19.00;99.90
8591;DHT22;4333;48.322;14.340;2023-06-22T03:27:06;19.10;99.90
8591;DHT22;4333;48.322;14.340;2023-06-22T03:29:34;19.20;99.90
8591;DHT22;4333;48.322;14.340;2023-06-22T03:32:02;19.20;99.90
8591;DHT22;4333;48.322;14.340;2023-06-22T03:34:30;19.40;99.90
8591;DHT22;4333;48.322;14.340;2023-06-22T03:36:59;19.60;99.90
8591;DHT22;4333;48.322;14.340;2023-06-22T03:39:35;19.60;99.90
8591;DHT22;4333;48.322;14.340;2023-06-22T03:42:07;19.60;99.90
8591;DHT22;4333;48.322;14.340;2023-06-22T03:44:33;19.60;99.90
8591;DHT22;4333;48.322;14.340;2023-06-22T03:47:04;19.70;99.90
8591;DHT22;4333;48.322;14.340;2023-06-22T03:49:29;19.70;99.90
8591;DHT22;4333;48.322;14.340;2023-06-22T03:51:57;19.80;99.90
8591;DHT22;4333;48.322;14.340;2023-06-22T03:54:25;19.80;99.90
8591;DHT22;4333;48.322;14.340;2023-06-22T03:56:51;19.80;99.90
8591;DHT22;4333;48.322;14.340;2023-06-22T03:59:20;19.80;99.90
8591;DHT22;4333;48.322;14.340;2023-06-22T04:01:47;19.80;99.90
8591;DHT22;4333;48.322;14.340;2023-06-22T04:04:19;19.70;99.90
8591;DHT22;4333;48.322;14.340;2023-06-22T04:06:47;19.70;99.90
8591;DHT22;4333;48.322;14.340;2023-06-22T04:09:22;19.60;99.90
8591;DHT22;4333;48.322;14.340;2023-06-22T04:11:48;19.50;99.90
8591;DHT22;4333;48.322;14.340;2023-06-22T04:14:18;19.50;99.90
8591;DHT22;4333;48.322;14.340;2023-06-22T04:16:44;19.50;99.90
8591;DHT22;4333;48.322;14.340;2023-06-22T04:19:10;19.50;99.90
8591;DHT22;4333;48.322;14.340;2023-06-22T04:21:43;19.50;99.90
8591;DHT22;4333;48.322;14.340;2023-06-22T04:24:10;19.40;99.90
8591;DHT22;4333;48.322;14.340;2023-06-22T04:26:41;19.40;99.90
8591;DHT22;4333;48.322;14.340;2023-06-22T04:29:08;19.50;99.90
8591;DHT22;4333;48.322;14.340;2023-06-22T04:31:36;19.50;99.90
8591;DHT22;4333;48.322;14.340;2023-06-22T04:34:06;19.50;99.90
8591;DHT22;4333;48.322;14.340;2023-06-22T04:36:35;19.60;99.90
8591;DHT22;4333;48.322;14.340;2023-06-22T04:39:10;19.60;99.90
8591;DHT22;4333;48.322;14.340;2023-06-22T04:41:42;19.60;99.90
8591;DHT22;4333;48.322;14.340;2023-06-22T04:44:15;19.60;99.90
8591;DHT22;4333;48.322;14.340;2023-06-22T04:46:58;19.50;99.90
8591;DHT22;4333;48.322;14.340;2023-06-22T04:49:29;19.40;99.90
8591;DHT22;4333;48.322;14.340;2023-06-22T04:52:06;19.40;99.90
8591;DHT22;4333;48.322;14.340;2023-06-22T04:54:32;19.40;99.90
8591;DHT22;4333;48.322;14.340;2023-06-22T04:57:05;19.50;99.90
8591;DHT22;4333;48.322;14.340;2023-06-22T04:59:36;19.60;99.90
8591;DHT22;4333;48.322;14.340;2023-06-22T05:02:05;19.70;99.90
8591;DHT22;4333;48.322;14.340;2023-06-22T05:04:31;19.70;99.90
8591;DHT22;4333;48.322;14.340;2023-06-22T05:07:00;19.90;99.90
8591;DHT22;4333;48.322;14.340;2023-06-22T05:09:26;19.90;99.90
8591;DHT22;4333;48.322;14.340;2023-06-22T05:11:52;20.00;99.90
8591;DHT22;4333;48.322;14.340;2023-06-22T05:14:19;20.30;99.90
8591;DHT22;4333;48.322;14.340;2023-06-22T05:16:48;20.40;99.90
8591;DHT22;4333;48.322;14.340;2023-06-22T05:19:16;20.50;99.90
8591;DHT22;4333;48.322;14.340;2023-06-22T05:21:42;20.70;99.90
8591;DHT22;4333;48.322;14.340;2023-06-22T05:24:08;20.90;99.90
8591;DHT22;4333;48.322;14.340;2023-06-22T05:26:34;21.00;99.90
8591;DHT22;4333;48.322;14.340;2023-06-22T05:29:03;21.10;99.90
8591;DHT22;4333;48.322;14.340;2023-06-22T05:31:29;21.30;99.90
8591;DHT22;4333;48.322;14.340;2023-06-22T05:33:58;21.40;99.90
8591;DHT22;4333;48.322;14.340;2023-06-22T05:36:26;21.40;99.90
8591;DHT22;4333;48.322;14.340;2023-06-22T05:38:56;21.40;99.90
8591;DHT22;4333;48.322;14.340;2023-06-22T05:41:30;21.50;99.90
8591;DHT22;4333;48.322;14.340;2023-06-22T05:43:58;21.70;99.90
8591;DHT22;4333;48.322;14.340;2023-06-22T05:46:26;21.80;99.90
8591;DHT22;4333;48.322;14.340;2023-06-22T05:48:52;22.60;99.90
8591;DHT22;4333;48.322;14.340;2023-06-22T05:51:18;23.30;99.90
8591;DHT22;4333;48.322;14.340;2023-06-22T05:53:45;23.80;99.90
8591;DHT22;4333;48.322;14.340;2023-06-22T05:56:15;24.40;99.90
8591;DHT22;4333;48.322;14.340;2023-06-22T05:58:41;25.60;85.80
8591;DHT22;4333;48.322;14.340;2023-06-22T06:01:10;26.30;70.70
8591;DHT22;4333;48.322;14.340;2023-06-22T06:03:35;27.00;55.30
8591;DHT22;4333;48.322;14.340;2023-06-22T06:06:07;27.40;49.00
8591;DHT22;4333;48.322;14.340;2023-06-22T06:08:33;27.00;47.50
8591;DHT22;4333;48.322;14.340;2023-06-22T06:10:59;26.00;51.50
8591;DHT22;4333;48.322;14.340;2023-06-22T06:13:25;25.50;63.20
8591;DHT22;4333;48.322;14.340;2023-06-22T06:15:57;25.80;53.20
8591;DHT22;4333;48.322;14.340;2023-06-22T06:18:23;26.60;51.50
8591;DHT22;4333;48.322;14.340;2023-06-22T06:20:49;28.30;39.30
8591;DHT22;4333;48.322;14.340;2023-06-22T06:23:14;29.10;26.70
8591;DHT22;4333;48.322;14.340;2023-06-22T06:25:42;29.20;23.80
8591;DHT22;4333;48.322;14.340;2023-06-22T06:28:08;29.20;23.20
8591;DHT22;4333;48.322;14.340;2023-06-22T06:30:36;29.70;19.70
8591;DHT22;4333;48.322;14.340;2023-06-22T06:33:03;30.50;19.50
8591;DHT22;4333;48.322;14.340;2023-06-22T06:35:34;30.80;11.50
8591;DHT22;4333;48.322;14.340;2023-06-22T06:37:59;30.80;8.40
8591;DHT22;4333;48.322;14.340;2023-06-22T06:40:26;30.50;8.00
8591;DHT22;4333;48.322;14.340;2023-06-22T06:42:51;30.80;10.80
8591;DHT22;4333;48.322;14.340;2023-06-22T06:45:22;32.60;3.90
8591;DHT22;4333;48.322;14.340;2023-06-22T06:47:49;34.20;1.00
8591;DHT22;4333;48.322;14.340;2023-06-22T06:50:18;36.00;1.00
8591;DHT22;4333;48.322;14.340;2023-06-22T06:52:44;37.10;1.00
8591;DHT22;4333;48.322;14.340;2023-06-22T06:55:12;38.00;1.00
8591;DHT22;4333;48.322;14.340;2023-06-22T06:57:39;38.40;1.00
8591;DHT22;4333;48.322;14.340;2023-06-22T07:00:10;36.20;1.00
8591;DHT22;4333;48.322;14.340;2023-06-22T07:02:41;36.20;1.00
8591;DHT22;4333;48.322;14.340;2023-06-22T07:05:14;36.60;1.00
8591;DHT22;4333;48.322;14.340;2023-06-22T07:07:42;35.70;1.00
8591;DHT22;4333;48.322;14.340;2023-06-22T07:10:08;34.50;1.00
8591;DHT22;4333;48.322;14.340;2023-06-22T07:12:34;34.30;1.00
8591;DHT22;4333;48.322;14.340;2023-06-22T07:15:08;33.60;1.00
8591;DHT22;4333;48.322;14.340;2023-06-22T07:17:38;32.90;1.00
8591;DHT22;4333;48.322;14.340;2023-06-22T07:20:07;31.90;1.00
8591;DHT22;4333;48.322;14.340;2023-06-22T07:22:38;31.30;1.00
8591;DHT22;4333;48.322;14.340;2023-06-22T07:25:04;31.50;1.00
8591;DHT22;4333;48.322;14.340;2023-06-22T07:27:36;30.70;1.00
8591;DHT22;4333;48.322;14.340;2023-06-22T07:30:11;30.70;1.00
8591;DHT22;4333;48.322;14.340;2023-06-22T07:32:44;30.30;2.30
8591;DHT22;4333;48.322;14.340;2023-06-22T07:35:10;30.50;1.00
8591;DHT22;4333;48.322;14.340;2023-06-22T07:37:36;30.30;1.00
8591;DHT22;4333;48.322;14.340;2023-06-22T07:40:02;30.90;6.00
8591;DHT22;4333;48.322;14.340;2023-06-22T07:42:34;31.50;1.00
8591;DHT22;4333;48.322;14.340;2023-06-22T07:44:59;29.70;1.00
8591;DHT22;4333;48.322;14.340;2023-06-22T07:47:25;28.90;10.50
8591;DHT22;4333;48.322;14.340;2023-06-22T07:49:54;28.30;16.80
8591;DHT22;4333;48.322;14.340;2023-06-22T07:52:20;28.40;18.50
8591;DHT22;4333;48.322;14.340;2023-06-22T07:54:47;28.80;16.90
8591;DHT22;4333;48.322;14.340;2023-06-22T07:57:13;29.10;15.60
8591;DHT22;4333;48.322;14.340;2023-06-22T07:59:41;29.00;15.00
8591;DHT22;4333;48.322;14.340;2023-06-22T08:02:09;28.30;17.20
8591;DHT22;4333;48.322;14.340;2023-06-22T08:04:38;28.00;19.70
8591;DHT22;4333;48.322;14.340;2023-06-22T08:07:05;28.40;18.70
8591;DHT22;4333;48.322;14.340;2023-06-22T08:09:32;29.10;18.00
8591;DHT22;4333;48.322;14.340;2023-06-22T08:11:58;29.30;15.60
8591;DHT22;4333;48.322;14.340;2023-06-22T08:14:29;29.50;11.90
8591;DHT22;4333;48.322;14.340;2023-06-22T08:16:55;29.90;9.30
8591;DHT22;4333;48.322;14.340;2023-06-22T08:19:20;30.30;8.90
8591;DHT22;4333;48.322;14.340;2023-06-22T08:21:49;30.00;5.40
8591;DHT22;4333;48.322;14.340;2023-06-22T08:24:18;30.00;10.10
8591;DHT22;4333;48.322;14.340;2023-06-22T08:26:43;29.50;10.60
8591;DHT22;4333;48.322;14.340;2023-06-22T08:29:12;29.10;13.50
8591;DHT22;4333;48.322;14.340;2023-06-22T08:31:39;29.20;18.50
8591;DHT22;4333;48.322;14.340;2023-06-22T08:34:05;29.90;18.40
8591;DHT22;4333;48.322;14.340;2023-06-22T08:36:31;30.50;13.80
8591;DHT22;4333;48.322;14.340;2023-06-22T08:39:00;30.90;13.90
8591;DHT22;4333;48.322;14.340;2023-06-22T08:41:28;31.40;6.20
8591;DHT22;4333;48.322;14.340;2023-06-22T08:43:54;31.40;12.60
8591;DHT22;4333;48.322;14.340;2023-06-22T08:46:23;31.70;6.10
8591;DHT22;4333;48.322;14.340;2023-06-22T08:49:03;31.70;7.70
8591;DHT22;4333;48.322;14.340;2023-06-22T08:51:34;32.20;5.40
8591;DHT22;4333;48.322;14.340;2023-06-22T08:54:02;33.00;5.10
8591;DHT22;4333;48.322;14.340;2023-06-22T08:56:30;33.60;2.10
8591;DHT22;4333;48.322;14.340;2023-06-22T08:58:58;33.70;1.00
8591;DHT22;4333;48.322;14.340;2023-06-22T09:01:36;33.50;1.00
8591;DHT22;4333;48.322;14.340;2023-06-22T09:04:07;33.40;1.00
8591;DHT22;4333;48.322;14.340;2023-06-22T09:06:37;33.90;1.00
8591;DHT22;4333;48.322;14.340;2023-06-22T09:09:10;33.90;1.00
8591;DHT22;4333;48.322;14.340;2023-06-22T09:11:36;33.50;1.00
8591;DHT22;4333;48.322;14.340;2023-06-22T09:14:04;32.30;1.00
8591;DHT22;4333;48.322;14.340;2023-06-22T09:16:30;31.40;1.00
8591;DHT22;4333;48.322;14.340;2023-06-22T09:18:56;31.10;2.10
8591;DHT22;4333;48.322;14.340;2023-06-22T09:21:23;30.90;4.90
8591;DHT22;4333;48.322;14.340;2023-06-22T09:23:48;31.20;6.80
8591;DHT22;4333;48.322;14.340;2023-06-22T09:26:20;31.80;2.50
8591;DHT22;4333;48.322;14.340;2023-06-22T09:28:46;31.80;2.20
8591;DHT22;4333;48.322;14.340;2023-06-22T09:31:12;31.70;1.00
8591;DHT22;4333;48.322;14.340;2023-06-22T09:33:40;31.50;1.00
8591;DHT22;4333;48.322;14.340;2023-06-22T09:36:07;31.10;1.00
8591;DHT22;4333;48.322;14.340;2023-06-22T09:38:40;30.90;1.00
8591;DHT22;4333;48.322;14.340;2023-06-22T09:41:06;30.70;1.00
8591;DHT22;4333;48.322;14.340;2023-06-22T09:43:32;30.60;2.30
8591;DHT22;4333;48.322;14.340;2023-06-22T09:46:01;30.80;1.00
8591;DHT22;4333;48.322;14.340;2023-06-22T09:48:29;31.10;1.00
8591;DHT22;4333;48.322;14.340;2023-06-22T09:50:56;31.40;1.00
8591;DHT22;4333;48.322;14.340;2023-06-22T09:53:25;31.90;1.00
8591;DHT22;4333;48.322;14.340;2023-06-22T09:55:53;31.80;1.00
8591;DHT22;4333;48.322;14.340;2023-06-22T09:58:24;31.90;1.00
8591;DHT22;4333;48.322;14.340;2023-06-22T10:00:52;31.60;1.00
8591;DHT22;4333;48.322;14.340;2023-06-22T10:03:20;31.60;1.00
8591;DHT22;4333;48.322;14.340;2023-06-22T10:05:50;31.80;1.00
8591;DHT22;4333;48.322;14.340;2023-06-22T10:08:29;32.50;1.00
8591;DHT22;4333;48.322;14.340;2023-06-22T10:10:55;32.60;1.00
8591;DHT22;4333;48.322;14.340;2023-06-22T10:13:24;32.70;1.00
8591;DHT22;4333;48.322;14.340;2023-06-22T10:15:56;32.40;1.00
8591;DHT22;4333;48.322;14.340;2023-06-22T10:18:27;32.10;1.00
8591;DHT22;4333;48.322;14.340;2023-06-22T10:21:16;32.20;1.00
8591;DHT22;4333;48.322;14.340;2023-06-22T10:23:52;31.70;1.00
8591;DHT22;4333;48.322;14.340;2023-06-22T10:26:22;31.80;1.00
8591;DHT22;4333;48.322;14.340;2023-06-22T10:29:03;31.60;1.00
8591;DHT22;4333;48.322;14.340;2023-06-22T10:31:32;31.40;1.00
8591;DHT22;4333;48.322;14.340;2023-06-22T10:34:01;31.40;1.00
8591;DHT22;4333;48.322;14.340;2023-06-22T10:36:30;32.10;1.00
8591;DHT22;4333;48.322;14.340;2023-06-22T10:38:58;31.90;1.00
8591;DHT22;4333;48.322;14.340;2023-06-22T10:41:26;32.30;1.00
8591;DHT22;4333;48.322;14.340;2023-06-22T10:44:04;32.30;1.00
8591;DHT22;4333;48.322;14.340;2023-06-22T10:46:38;31.90;1.00
8591;DHT22;4333;48.322;14.340;2023-06-22T10:49:04;32.10;1.00
8591;DHT22;4333;48.322;14.340;2023-06-22T10:51:31;32.10;1.00
8591;DHT22;4333;48.322;14.340;2023-06-22T10:54:01;32.30;1.00
8591;DHT22;4333;48.322;14.340;2023-06-22T10:56:40;32.30;1.00
8591;DHT22;4333;48.322;14.340;2023-06-22T10:59:07;31.90;1.00
8591;DHT22;4333;48.322;14.340;2023-06-22T11:01:36;31.70;1.00
8591;DHT22;4333;48.322;14.340;2023-06-22T11:04:11;31.90;1.00
8591;DHT22;4333;48.322;14.340;2023-06-22T11:10:24;31.80;1.00
8591;DHT22;4333;48.322;14.340;2023-06-22T11:13:01;31.80;1.00
8591;DHT22;4333;48.322;14.340;2023-06-22T11:16:11;32.00;1.00
8591;DHT22;4333;48.322;14.340;2023-06-22T11:22:06;32.70;1.00
8591;DHT22;4333;48.322;14.340;2023-06-22T11:24:34;32.60;1.00
8591;DHT22;4333;48.322;14.340;2023-06-22T11:27:26;33.20;1.00
8591;DHT22;4333;48.322;14.340;2023-06-22T11:29:54;33.70;1.00
8591;DHT22;4333;48.322;14.340;2023-06-22T11:32:23;33.40;1.00
8591;DHT22;4333;48.322;14.340;2023-06-22T11:35:32;33.20;1.00
8591;DHT22;4333;48.322;14.340;2023-06-22T11:38:00;33.00;1.00
8591;DHT22;4333;48.322;14.340;2023-06-22T11:40:38;32.90;1.00
8591;DHT22;4333;48.322;14.340;2023-06-22T11:43:22;33.10;1.00
8591;DHT22;4333;48.322;14.340;2023-06-22T11:46:21;33.00;1.00
8591;DHT22;4333;48.322;14.340;2023-06-22T11:49:00;33.10;1.00
8591;DHT22;4333;48.322;14.340;2023-06-22T11:51:53;33.40;1.00
8591;DHT22;4333;48.322;14.340;2023-06-22T11:54:22;32.80;1.00
8591;DHT22;4333;48.322;14.340;2023-06-22T11:56:50;33.10;1.00
8591;DHT22;4333;48.322;14.340;2023-06-22T12:06:35;34.20;1.00
8591;DHT22;4333;48.322;14.340;2023-06-22T12:10:07;34.70;1.00
8591;DHT22;4333;48.322;14.340;2023-06-22T12:13:31;34.30;1.00
8591;DHT22;4333;48.322;14.340;2023-06-22T12:16:40;33.50;1.00
8591;DHT22;4333;48.322;14.340;2023-06-22T12:23:06;33.40;1.00
8591;DHT22;4333;48.322;14.340;2023-06-22T12:26:29;33.40;1.00
8591;DHT22;4333;48.322;14.340;2023-06-22T12:36:18;33.70;1.00
8591;DHT22;4333;48.322;14.340;2023-06-22T12:39:16;33.40;1.00
8591;DHT22;4333;48.322;14.340;2023-06-22T12:42:32;33.40;1.00
8591;DHT22;4333;48.322;14.340;2023-06-22T12:45:49;33.70;1.00
8591;DHT22;4333;48.322;14.340;2023-06-22T12:48:38;34.10;1.00
8591;DHT22;4333;48.322;14.340;2023-06-22T12:51:21;34.40;1.00
8591;DHT22;4333;48.322;14.340;2023-06-22T12:54:30;34.00;1.00
8591;DHT22;4333;48.322;14.340;2023-06-22T13:00:32;33.30;1.00
8591;DHT22;4333;48.322;14.340;2023-06-22T13:03:09;33.20;1.00
8591;DHT22;4333;48.322;14.340;2023-06-22T13:09:40;33.10;1.00
8591;DHT22;4333;48.322;14.340;2023-06-22T13:16:34;33.70;1.00
8591;DHT22;4333;48.322;14.340;2023-06-22T13:20:03;33.50;1.00
8591;DHT22;4333;48.322;14.340;2023-06-22T13:22:56;33.30;1.00
8591;DHT22;4333;48.322;14.340;2023-06-22T13:26:05;33.80;1.00
8591;DHT22;4333;48.322;14.340;2023-06-22T13:28:52;33.50;1.00
8591;DHT22;4333;48.322;14.340;2023-06-22T13:35:58;33.50;1.00
8591;DHT22;4333;48.322;14.340;2023-06-22T13:38:52;33.80;1.00
8591;DHT22;4333;48.322;14.340;2023-06-22T13:41:57;33.20;1.00
8591;DHT22;4333;48.322;14.340;2023-06-22T13:48:11;32.90;1.00
8591;DHT22;4333;48.322;14.340;2023-06-22T13:55:00;33.30;1.00
8591;DHT22;4333;48.322;14.340;2023-06-22T13:58:39;33.30;1.00
8591;DHT22;4333;48.322;14.340;2023-06-22T14:02:18;33.10;1.00
8591;DHT22;4333;48.322;14.340;2023-06-22T14:04:59;33.10;1.00
8591;DHT22;4333;48.322;14.340;2023-06-22T14:07:52;33.10;1.00
8591;DHT22;4333;48.322;14.340;2023-06-22T14:10:21;33.20;1.00
8591;DHT22;4333;48.322;14.340;2023-06-22T14:13:19;33.20;1.00
8591;DHT22;4333;48.322;14.340;2023-06-22T14:16:35;33.20;1.00
8591;DHT22;4333;48.322;14.340;2023-06-22T14:19:25;33.10;1.00
8591;DHT22;4333;48.322;14.340;2023-06-22T14:22:16;33.60;1.00
8591;DHT22;4333;48.322;14.340;2023-06-22T14:25:25;33.70;1.00
8591;DHT22;4333;48.322;14.340;2023-06-22T14:27:51;33.50;1.00
8591;DHT22;4333;48.322;14.340;2023-06-22T14:30:18;33.60;1.00
8591;DHT22;4333;48.322;14.340;2023-06-22T14:33:03;33.40;1.00
8591;DHT22;4333;48.322;14.340;2023-06-22T14:35:42;33.00;1.00
8591;DHT22;4333;48.322;14.340;2023-06-22T14:38:23;33.00;1.00
8591;DHT22;4333;48.322;14.340;2023-06-22T14:40:48;32.90;2.00
8591;DHT22;4333;48.322;14.340;2023-06-22T14:43:17;32.90;1.60
8591;DHT22;4333;48.322;14.340;2023-06-22T14:45:45;32.90;1.00
8591;DHT22;4333;48.322;14.340;2023-06-22T14:48:24;33.10;1.50
8591;DHT22;4333;48.322;14.340;2023-06-22T14:51:41;32.70;3.50
8591;DHT22;4333;48.322;14.340;2023-06-22T14:54:13;32.70;2.70
8591;DHT22;4333;48.322;14.340;2023-06-22T14:56:43;32.60;6.70
8591;DHT22;4333;48.322;14.340;2023-06-22T15:02:36;32.80;6.80
8591;DHT22;4333;48.322;14.340;2023-06-22T15:05:23;32.90;4.70
8591;DHT22;4333;48.322;14.340;2023-06-22T15:08:10;32.90;7.70
8591;DHT22;4333;48.322;14.340;2023-06-22T15:10:53;32.90;8.40
8591;DHT22;4333;48.322;14.340;2023-06-22T15:13:58;33.30;2.90
8591;DHT22;4333;48.322;14.340;2023-06-22T15:16:59;33.10;5.10
8591;DHT22;4333;48.322;14.340;2023-06-22T15:19:49;32.90;5.50
8591;DHT22;4333;48.322;14.340;2023-06-22T15:22:19;32.60;7.50
8591;DHT22;4333;48.322;14.340;2023-06-22T15:24:45;32.60;10.30
8591;DHT22;4333;48.322;14.340;2023-06-22T15:27:26;32.70;11.00
8591;DHT22;4333;48.322;14.340;2023-06-22T15:30:22;32.80;10.40
8591;DHT22;4333;48.322;14.340;2023-06-22T15:33:27;32.60;11.30
8591;DHT22;4333;48.322;14.340;2023-06-22T15:36:00;32.70;12.90
8591;DHT22;4333;48.322;14.340;2023-06-22T15:38:29;32.70;11.80
8591;DHT22;4333;48.322;14.340;2023-06-22T15:41:39;32.80;11.30
8591;DHT22;4333;48.322;14.340;2023-06-22T15:44:07;32.80;11.30
8591;DHT22;4333;48.322;14.340;2023-06-22T15:46:34;33.00;11.50
8591;DHT22;4333;48.322;14.340;2023-06-22T15:52:27;32.70;10.60
8591;DHT22;4333;48.322;14.340;2023-06-22T15:55:42;32.60;11.80
8591;DHT22;4333;48.322;14.340;2023-06-22T16:02:22;32.40;11.50
8591;DHT22;4333;48.322;14.340;2023-06-22T16:05:10;32.20;16.50
8591;DHT22;4333;48.322;14.340;2023-06-22T16:08:26;32.30;16.20
8591;DHT22;4333;48.322;14.340;2023-06-22T16:11:55;32.20;15.40
8591;DHT22;4333;48.322;14.340;2023-06-22T16:14:28;32.10;16.80
8591;DHT22;4333;48.322;14.340;2023-06-22T16:20:31;32.20;17.40
8591;DHT22;4333;48.322;14.340;2023-06-22T16:23:22;32.20;19.60
8591;DHT22;4333;48.322;14.340;2023-06-22T16:26:20;32.30;16.70
8591;DHT22;4333;48.322;14.340;2023-06-22T16:28:49;32.30;19.10
8591;DHT22;4333;48.322;14.340;2023-06-22T16:31:28;32.20;19.50
8591;DHT22;4333;48.322;14.340;2023-06-22T16:34:00;32.30;19.80
8591;DHT22;4333;48.322;14.340;2023-06-22T16:36:31;32.10;19.20
8591;DHT22;4333;48.322;14.340;2023-06-22T16:39:43;32.20;20.20
8591;DHT22;4333;48.322;14.340;2023-06-22T16:42:35;32.30;20.80
8591;DHT22;4333;48.322;14.340;2023-06-22T16:45:04;32.30;20.20
8591;DHT22;4333;48.322;14.340;2023-06-22T16:47:41;32.30;20.30
8591;DHT22;4333;48.322;14.340;2023-06-22T16:50:07;32.40;21.40
8591;DHT22;4333;48.322;14.340;2023-06-22T16:53:02;32.40;21.90
8591;DHT22;4333;48.322;14.340;2023-06-22T16:55:42;32.50;21.40
8591;DHT22;4333;48.322;14.340;2023-06-22T16:58:11;32.50;21.40
8591;DHT22;4333;48.322;14.340;2023-06-22T17:00:39;32.50;21.20
8591;DHT22;4333;48.322;14.340;2023-06-22T17:03:28;32.20;20.30
8591;DHT22;4333;48.322;14.340;2023-06-22T17:06:01;32.30;22.10
8591;DHT22;4333;48.322;14.340;2023-06-22T17:08:32;32.10;23.70
8591;DHT22;4333;48.322;14.340;2023-06-22T17:11:00;32.10;24.20
8591;DHT22;4333;48.322;14.340;2023-06-22T17:13:29;32.10;24.00
8591;DHT22;4333;48.322;14.340;2023-06-22T17:15:59;32.00;22.10
8591;DHT22;4333;48.322;14.340;2023-06-22T17:18:28;32.00;25.80
8591;DHT22;4333;48.322;14.340;2023-06-22T17:20:54;31.70;27.00
8591;DHT22;4333;48.322;14.340;2023-06-22T17:23:24;31.60;29.80
8591;DHT22;4333;48.322;14.340;2023-06-22T17:25:55;31.60;30.00
8591;DHT22;4333;48.322;14.340;2023-06-22T17:28:25;31.60;30.00
8591;DHT22;4333;48.322;14.340;2023-06-22T17:31:15;31.50;27.80
8591;DHT22;4333;48.322;14.340;2023-06-22T17:33:42;31.60;28.10
8591;DHT22;4333;48.322;14.340;2023-06-22T17:36:11;31.40;28.90
8591;DHT22;4333;48.322;14.340;2023-06-22T17:38:39;31.30;29.00
8591;DHT22;4333;48.322;14.340;2023-06-22T17:41:06;31.20;31.50
8591;DHT22;4333;48.322;14.340;2023-06-22T17:43:32;31.20;33.40
8591;DHT22;4333;48.322;14.340;2023-06-22T17:45:59;31.20;31.40
8591;DHT22;4333;48.322;14.340;2023-06-22T17:48:27;31.20;35.10